Time;durP1;ratioP1;P1;durP2;ratioP2;P2;SDS_P1;SDS_P2;PMS_P1;PMS_P2;Temp;Humidity;BMP_temperature;BMP_pressure;BME280_temperature;BME280_humidity;BME280_pressure;Samples;Min_cycle;Max_cycle;Signal;HPM_P1;HPM_P2
2021/03/05 00:00:45;;;;;;;14.45;4.05;;;6.10;99.90;;;;;;6273717;22;20393;-73
2021/03/05 00:03:11;;;;;;;18.67;4.40;;;6.10;99.90;;;;;;6275427;22;20057;-72
2021/03/05 00:05:39;;;;;;;24.10;4.40;;;6.10;99.90;;;;;;6273462;22;19999;-73
2021/03/05 00:08:06;;;;;;;15.63;3.40;;;6.20;99.90;;;;;;6273282;22;20511;-73
2021/03/05 00:10:33;;;;;;;17.80;3.72;;;6.20;99.90;;;;;;6273080;22;20324;-73
2021/03/05 00:12:59;;;;;;;26.58;5.93;;;6.30;99.90;;;;;;6272992;22;20007;-73
2021/03/05 00:15:28;;;;;;;16.23;4.15;;;6.30;99.90;;;;;;6273329;22;20006;-73
2021/03/05 00:17:53;;;;;;;14.50;3.90;;;6.20;99.90;;;;;;6274520;22;20056;-72
2021/03/05 00:20:22;;;;;;;16.40;4.13;;;6.20;99.90;;;;;;6274732;22;20421;-72
2021/03/05 00:22:48;;;;;;;12.82;3.80;;;6.10;99.90;;;;;;6275871;22;20039;-73
2021/03/05 00:25:13;;;;;;;17.95;4.03;;;5.90;99.90;;;;;;6273935;22;20420;-73
2021/03/05 00:27:39;;;;;;;16.15;3.50;;;5.90;99.90;;;;;;6273263;22;20047;-73
2021/03/05 00:30:07;;;;;;;19.52;4.45;;;5.90;99.90;;;;;;6274443;22;20035;-73
2021/03/05 00:32:36;;;;;;;16.95;3.97;;;6.00;99.90;;;;;;6275009;22;20030;-72
2021/03/05 00:35:05;;;;;;;22.25;4.85;;;6.00;99.90;;;;;;6272448;22;20000;-73
2021/03/05 00:37:31;;;;;;;19.08;4.25;;;6.00;99.90;;;;;;6275581;22;20023;-73
2021/03/05 00:39:56;;;;;;;13.70;4.00;;;6.10;99.90;;;;;;6273210;22;19995;-73
2021/03/05 00:42:22;;;;;;;22.13;4.03;;;6.10;99.90;;;;;;6275063;22;20049;-73
2021/03/05 00:44:47;;;;;;;21.17;5.15;;;6.00;99.90;;;;;;6274291;22;20324;-73
2021/03/05 00:47:13;;;;;;;19.33;3.72;;;6.00;99.90;;;;;;6273473;22;20061;-73
2021/03/05 00:49:39;;;;;;;26.30;4.82;;;6.00;99.90;;;;;;6275628;22;20011;-73
2021/03/05 00:52:05;;;;;;;20.13;4.72;;;6.00;99.90;;;;;;6275169;22;20003;-73
2021/03/05 00:54:31;;;;;;;29.45;4.70;;;6.00;99.90;;;;;;6273048;22;20379;-73
2021/03/05 00:56:56;;;;;;;23.27;4.95;;;5.90;99.90;;;;;;6272405;22;20061;-73
2021/03/05 00:59:22;;;;;;;14.02;4.05;;;5.90;99.90;;;;;;6270465;22;20008;-72
2021/03/05 01:01:47;;;;;;;20.40;4.80;;;5.90;99.90;;;;;;6275531;22;20294;-73
2021/03/05 01:04:13;;;;;;;16.20;4.63;;;5.90;99.90;;;;;;6274526;22;19999;-72
2021/03/05 01:06:39;;;;;;;20.77;4.93;;;5.90;99.90;;;;;;6270272;22;20004;-73
2021/03/05 01:09:04;;;;;;;21.27;5.07;;;5.90;99.90;;;;;;6272710;22;20061;-72
2021/03/05 01:11:31;;;;;;;17.73;5.22;;;5.80;99.90;;;;;;6272864;22;20003;-73
2021/03/05 01:13:57;;;;;;;15.10;4.35;;;5.90;99.90;;;;;;6274356;22;20000;-73
2021/03/05 01:16:22;;;;;;;13.88;4.80;;;5.80;99.90;;;;;;6273430;22;20004;-73
2021/03/05 01:18:48;;;;;;;17.63;4.47;;;5.70;99.90;;;;;;6275038;22;20003;-73
2021/03/05 01:21:14;;;;;;;13.60;4.20;;;5.80;99.90;;;;;;6274550;22;20045;-73
2021/03/05 01:23:39;;;;;;;19.52;4.93;;;5.80;99.90;;;;;;6271948;22;20070;-72
2021/03/05 01:26:07;;;;;;;20.58;4.88;;;5.70;99.90;;;;;;6273488;22;20010;-73
2021/03/05 01:28:33;;;;;;;18.25;5.13;;;5.70;99.90;;;;;;6275081;22;20019;-73
2021/03/05 01:30:58;;;;;;;20.70;4.55;;;5.70;99.90;;;;;;6274560;22;19999;-73
2021/03/05 01:33:24;;;;;;;22.40;5.18;;;5.70;99.90;;;;;;6273121;22;20074;-73
2021/03/05 01:35:49;;;;;;;19.63;5.13;;;5.70;99.90;;;;;;6274399;22;19996;-73
2021/03/05 01:38:15;;;;;;;16.35;4.20;;;5.70;99.90;;;;;;6272919;22;20004;-73
2021/03/05 01:40:45;;;;;;;22.63;4.35;;;5.80;99.90;;;;;;6274211;22;19999;-73
2021/03/05 01:43:13;;;;;;;17.20;4.45;;;5.70;99.90;;;;;;6274265;22;20010;-73
2021/03/05 01:45:39;;;;;;;22.63;4.57;;;5.70;99.90;;;;;;6273924;22;20497;-73
2021/03/05 01:48:13;;;;;;;19.42;4.85;;;5.70;99.90;;;;;;6274561;22;20053;-73
2021/03/05 01:50:53;;;;;;;18.90;5.00;;;5.60;99.90;;;;;;6272850;22;20003;-73
2021/03/05 01:53:20;;;;;;;12.55;4.30;;;5.70;99.90;;;;;;6273868;22;20046;-73
2021/03/05 01:55:46;;;;;;;20.27;4.88;;;5.60;99.90;;;;;;6273585;22;20000;-72
2021/03/05 01:58:13;;;;;;;22.80;4.78;;;5.70;99.90;;;;;;6274274;22;20008;-72
2021/03/05 02:00:50;;;;;;;16.63;4.25;;;5.70;99.90;;;;;;6274403;22;20008;-73
2021/03/05 02:03:16;;;;;;;17.55;5.35;;;5.70;99.90;;;;;;6274040;22;20000;-73
2021/03/05 02:05:42;;;;;;;19.58;5.15;;;5.80;99.90;;;;;;6271992;22;20007;-73
2021/03/05 02:08:12;;;;;;;12.15;4.75;;;5.80;99.90;;;;;;6273992;22;20012;-73
2021/03/05 02:10:39;;;;;;;21.73;5.50;;;5.80;99.90;;;;;;6274872;22;20083;-73
2021/03/05 02:13:05;;;;;;;14.95;4.82;;;5.80;99.90;;;;;;6274505;22;20004;-73
2021/03/05 02:15:36;;;;;;;15.93;5.60;;;5.80;99.90;;;;;;6273102;22;19996;-73
2021/03/05 02:18:19;;;;;;;20.83;5.70;;;5.80;99.90;;;;;;6274771;22;20023;-73
2021/03/05 02:21:04;;;;;;;16.85;5.93;;;5.80;99.90;;;;;;6274384;22;20348;-73
2021/03/05 02:23:39;;;;;;;16.02;5.50;;;5.80;99.90;;;;;;6274329;22;20011;-72
2021/03/05 02:26:26;;;;;;;18.70;5.43;;;5.70;99.90;;;;;;6273618;22;20000;-73
2021/03/05 02:29:22;;;;;;;17.92;5.00;;;5.70;99.90;;;;;;6274321;22;20069;-73
2021/03/05 02:32:29;;;;;;;16.00;5.97;;;5.70;99.90;;;;;;6271559;22;19999;-73
2021/03/05 02:34:55;;;;;;;23.33;6.90;;;5.70;99.90;;;;;;6272589;22;20003;-73
2021/03/05 02:37:23;;;;;;;18.73;6.07;;;5.70;99.90;;;;;;6274203;22;20003;-73
2021/03/05 02:40:08;;;;;;;25.10;7.40;;;5.70;99.90;;;;;;6272354;22;20413;-73
2021/03/05 02:42:50;;;;;;;25.65;7.10;;;5.70;99.90;;;;;;6276846;22;20400;-73
2021/03/05 02:45:22;;;;;;;18.05;6.80;;;5.70;99.90;;;;;;6274485;22;20000;-73
2021/03/05 02:47:53;;;;;;;24.88;6.28;;;5.70;99.90;;;;;;6276670;22;20008;-72
2021/03/05 02:50:21;;;;;;;21.35;7.70;;;5.70;99.90;;;;;;6276280;22;19999;-72
2021/03/05 02:52:51;;;;;;;23.08;7.95;;;5.70;99.90;;;;;;6276888;22;20432;-72
2021/03/05 02:55:20;;;;;;;21.42;7.85;;;5.70;99.90;;;;;;6274588;22;20007;-73
2021/03/05 02:57:47;;;;;;;31.05;8.23;;;5.70;99.90;;;;;;6276590;22;20061;-73
2021/03/05 03:00:15;;;;;;;23.38;8.48;;;5.60;99.90;;;;;;6274558;22;20000;-72
2021/03/05 03:02:44;;;;;;;20.27;7.97;;;5.60;99.90;;;;;;6273420;22;20004;-73
2021/03/05 03:05:11;;;;;;;21.50;10.30;;;5.60;99.90;;;;;;6274180;22;20061;-73
2021/03/05 03:07:40;;;;;;;27.63;9.88;;;5.60;99.90;;;;;;6276383;22;20015;-73
2021/03/05 03:10:08;;;;;;;27.75;9.95;;;5.60;99.90;;;;;;6273804;22;19996;-73
2021/03/05 03:12:34;;;;;;;24.00;10.48;;;5.70;99.90;;;;;;6275593;22;20010;-73
2021/03/05 03:15:01;;;;;;;26.60;10.50;;;5.70;99.90;;;;;;6273992;22;20040;-73
2021/03/05 03:17:28;;;;;;;20.85;10.77;;;5.60;99.90;;;;;;6273570;22;20065;-73
2021/03/05 03:19:55;;;;;;;25.42;11.75;;;5.70;99.90;;;;;;6276225;22;20420;-72
2021/03/05 03:22:21;;;;;;;22.95;12.00;;;5.70;99.90;;;;;;6275888;22;20018;-73
2021/03/05 03:24:48;;;;;;;25.30;11.57;;;5.70;99.90;;;;;;6274932;22;20456;-73
2021/03/05 03:27:13;;;;;;;22.30;11.60;;;5.70;99.90;;;;;;6276104;22;20099;-73
2021/03/05 03:29:41;;;;;;;23.92;12.18;;;5.60;99.90;;;;;;6274218;22;20050;-72
2021/03/05 03:32:10;;;;;;;20.52;11.65;;;5.60;99.90;;;;;;6275081;22;20000;-73
2021/03/05 03:34:40;;;;;;;20.98;11.50;;;5.60;99.90;;;;;;6273581;22;20091;-73
2021/03/05 03:37:07;;;;;;;22.00;11.73;;;5.60;99.90;;;;;;6274162;22;20046;-73
2021/03/05 03:39:33;;;;;;;19.67;11.98;;;5.50;99.90;;;;;;6273969;22;20031;-73
2021/03/05 03:42:01;;;;;;;20.35;10.55;;;5.50;99.90;;;;;;6275658;22;20007;-73
2021/03/05 03:44:27;;;;;;;19.63;11.20;;;5.50;99.90;;;;;;6276311;22;20000;-73
2021/03/05 03:46:53;;;;;;;17.08;10.43;;;5.40;99.90;;;;;;6274392;22;20436;-72
2021/03/05 03:49:27;;;;;;;15.30;9.75;;;5.30;99.90;;;;;;6274640;22;20010;-73
2021/03/05 03:51:58;;;;;;;17.23;9.90;;;5.20;99.90;;;;;;6276603;22;20413;-72
2021/03/05 03:54:25;;;;;;;16.73;10.73;;;5.20;99.90;;;;;;6275661;22;19996;-73
2021/03/05 03:56:53;;;;;;;17.40;9.82;;;5.30;99.90;;;;;;6273487;22;20341;-72
2021/03/05 03:59:20;;;;;;;15.50;10.18;;;5.30;99.90;;;;;;6275185;22;20404;-72
2021/03/05 04:01:48;;;;;;;16.75;9.93;;;5.30;99.90;;;;;;6276767;22;20000;-72
2021/03/05 04:04:16;;;;;;;22.63;11.70;;;5.40;99.90;;;;;;6275702;22;20023;-72
2021/03/05 04:06:45;;;;;;;19.45;11.88;;;5.30;99.90;;;;;;6272854;22;20004;-73
2021/03/05 04:09:11;;;;;;;20.40;11.55;;;5.40;99.90;;;;;;6275101;22;20004;-72
2021/03/05 04:11:39;;;;;;;17.67;11.00;;;5.40;99.90;;;;;;6276130;22;20000;-73
2021/03/05 04:14:06;;;;;;;20.70;10.20;;;5.20;99.90;;;;;;6275759;22;20038;-72
2021/03/05 04:16:31;;;;;;;19.27;11.10;;;5.10;99.90;;;;;;6271990;22;19995;-72
2021/03/05 04:18:57;;;;;;;14.45;10.15;;;5.10;99.90;;;;;;6274915;22;20003;-73
2021/03/05 04:21:27;;;;;;;14.82;9.07;;;5.00;99.90;;;;;;6274306;22;20000;-73
2021/03/05 04:23:53;;;;;;;13.77;9.77;;;4.90;99.90;;;;;;6273943;22;20053;-72
2021/03/05 04:26:18;;;;;;;20.65;10.98;;;4.90;99.90;;;;;;6274335;22;20007;-73
2021/03/05 04:28:44;;;;;;;17.08;10.57;;;4.90;99.90;;;;;;6275373;22;20084;-73
2021/03/05 04:31:10;;;;;;;19.35;11.68;;;4.90;99.90;;;;;;6275749;22;20306;-73
2021/03/05 04:33:36;;;;;;;17.27;10.52;;;4.80;99.90;;;;;;6272873;22;19995;-73
2021/03/05 04:36:03;;;;;;;18.25;9.88;;;4.90;99.90;;;;;;6276013;22;20079;-73
2021/03/05 04:38:29;;;;;;;24.02;11.48;;;4.80;99.90;;;;;;6273588;22;20004;-73
2021/03/05 04:40:55;;;;;;;19.67;10.60;;;4.70;99.90;;;;;;6275563;22;20000;-72
2021/03/05 04:43:20;;;;;;;22.75;11.52;;;4.70;99.90;;;;;;6275674;22;20078;-72
2021/03/05 04:45:46;;;;;;;18.65;11.15;;;4.60;99.90;;;;;;6274808;22;20003;-73
2021/03/05 04:48:12;;;;;;;20.48;10.68;;;4.60;99.90;;;;;;6275196;22;20011;-72
2021/03/05 04:50:38;;;;;;;19.65;11.50;;;4.60;99.90;;;;;;6275249;22;20010;-72
2021/03/05 04:53:04;;;;;;;19.65;11.23;;;4.50;99.90;;;;;;6273835;22;20079;-72
2021/03/05 04:55:30;;;;;;;21.38;12.10;;;4.60;99.90;;;;;;6273001;22;20492;-73
2021/03/05 04:57:56;;;;;;;23.95;12.60;;;4.50;99.90;;;;;;6275181;22;20012;-73
2021/03/05 05:00:22;;;;;;;20.13;11.35;;;4.40;99.90;;;;;;6275734;22;20130;-73
2021/03/05 05:02:48;;;;;;;19.20;10.63;;;4.40;99.90;;;;;;6272333;22;20081;-73
2021/03/05 05:05:15;;;;;;;20.10;11.40;;;4.40;99.90;;;;;;6274199;22;20421;-73
2021/03/05 05:07:40;;;;;;;19.00;11.38;;;4.30;99.90;;;;;;6274914;22;20011;-73
2021/03/05 05:10:07;;;;;;;22.15;12.20;;;4.30;99.90;;;;;;6274867;22;20102;-73
2021/03/05 05:12:33;;;;;;;17.05;11.23;;;4.30;99.90;;;;;;6274947;22;20384;-73
2021/03/05 05:14:58;;;;;;;21.42;11.23;;;4.20;99.90;;;;;;6275084;22;19995;-72
2021/03/05 05:17:24;;;;;;;18.52;11.18;;;4.10;99.90;;;;;;6275790;22;20425;-72
2021/03/05 05:19:50;;;;;;;20.60;10.70;;;4.20;99.90;;;;;;6274646;22;20010;-72
2021/03/05 05:22:15;;;;;;;20.35;11.23;;;4.10;99.90;;;;;;6274958;22;20011;-72
2021/03/05 05:24:41;;;;;;;16.92;10.32;;;4.10;99.90;;;;;;6271401;22;20005;-72
2021/03/05 05:27:07;;;;;;;20.83;11.82;;;4.10;99.90;;;;;;6275194;22;20094;-73
2021/03/05 05:29:33;;;;;;;23.40;11.90;;;4.20;99.90;;;;;;6274616;22;20298;-73
2021/03/05 05:31:58;;;;;;;26.67;11.93;;;4.10;99.90;;;;;;6273768;22;20006;-73
2021/03/05 05:34:24;;;;;;;29.20;11.75;;;4.10;99.90;;;;;;6274175;22;20003;-73
2021/03/05 05:36:50;;;;;;;19.15;10.98;;;4.00;99.90;;;;;;6274236;22;20000;-72
2021/03/05 05:39:16;;;;;;;19.40;10.88;;;4.00;99.90;;;;;;6273147;22;20011;-72
2021/03/05 05:41:41;;;;;;;19.48;10.85;;;4.00;99.90;;;;;;6275270;22;19996;-72
2021/03/05 05:44:08;;;;;;;21.23;10.93;;;3.90;99.90;;;;;;6272640;22;20015;-73
2021/03/05 05:46:34;;;;;;;23.48;11.05;;;4.00;99.90;;;;;;6273753;22;20364;-73
2021/03/05 05:49:03;;;;;;;23.98;11.38;;;3.90;99.90;;;;;;6272470;22;20022;-73
2021/03/05 05:51:32;;;;;;;18.15;10.63;;;3.90;99.90;;;;;;6274593;22;20022;-72
2021/03/05 05:54:06;;;;;;;21.25;11.50;;;3.80;99.90;;;;;;6274843;22;20004;-72
2021/03/05 05:56:33;;;;;;;18.83;11.45;;;3.70;99.90;;;;;;6275422;22;19999;-73
2021/03/05 05:58:59;;;;;;;21.17;11.00;;;3.70;99.90;;;;;;6273874;22;20011;-72
2021/03/05 06:01:25;;;;;;;18.23;10.10;;;3.60;99.90;;;;;;6275431;22;20065;-72
2021/03/05 06:03:50;;;;;;;18.88;10.18;;;3.60;99.90;;;;;;6272555;22;20421;-72
2021/03/05 06:06:16;;;;;;;19.98;10.60;;;3.50;99.90;;;;;;6271833;22;19996;-72
2021/03/05 06:08:42;;;;;;;17.55;10.90;;;3.40;99.90;;;;;;6274149;22;20015;-72
2021/03/05 06:11:08;;;;;;;20.70;11.40;;;3.50;99.90;;;;;;6274195;22;20070;-73
2021/03/05 06:13:34;;;;;;;17.30;10.77;;;3.50;99.90;;;;;;6273936;22;20733;-72
2021/03/05 06:16:18;;;;;;;21.83;10.38;;;3.50;99.90;;;;;;6272679;22;20008;-73
2021/03/05 06:18:45;;;;;;;16.73;10.50;;;3.50;99.90;;;;;;6274491;22;20003;-72
2021/03/05 06:21:11;;;;;;;19.48;11.63;;;3.50;99.90;;;;;;6274142;22;20423;-72
2021/03/05 06:23:58;;;;;;;20.55;11.05;;;3.50;99.90;;;;;;6272386;22;20053;-72
2021/03/05 06:26:25;;;;;;;18.08;10.45;;;3.30;99.90;;;;;;6273913;22;20360;-72
2021/03/05 06:29:06;;;;;;;20.63;10.77;;;3.40;99.90;;;;;;6274622;22;20054;-72
2021/03/05 06:31:34;;;;;;;24.95;10.50;;;3.30;99.90;;;;;;6274662;22;20007;-72
2021/03/05 06:34:03;;;;;;;20.45;10.57;;;3.30;99.90;;;;;;6272332;22;20436;-72
2021/03/05 06:36:29;;;;;;;19.42;10.48;;;3.30;99.90;;;;;;6274169;22;20000;-72
2021/03/05 06:38:56;;;;;;;24.05;10.82;;;3.30;99.90;;;;;;6272822;22;20030;-72
2021/03/05 06:41:22;;;;;;;21.17;10.15;;;3.20;99.90;;;;;;6274131;22;20758;-72
2021/03/05 06:43:56;;;;;;;24.92;11.73;;;3.20;99.90;;;;;;6274900;22;20383;-72
2021/03/05 06:46:30;;;;;;;18.50;10.27;;;3.10;99.90;;;;;;6271980;22;20368;-72
2021/03/05 06:48:57;;;;;;;17.23;10.00;;;3.10;99.90;;;;;;6270090;22;20015;-73
2021/03/05 06:51:24;;;;;;;17.65;9.85;;;3.10;99.90;;;;;;6274473;22;20027;-74
2021/03/05 06:54:00;;;;;;;16.67;9.57;;;3.10;99.90;;;;;;6274725;22;20484;-73
2021/03/05 06:56:31;;;;;;;17.75;9.50;;;3.10;99.90;;;;;;6274433;22;20003;-71
2021/03/05 06:58:58;;;;;;;15.00;8.32;;;3.10;99.90;;;;;;6274396;22;20424;-73
2021/03/05 07:01:24;;;;;;;18.80;9.23;;;3.10;99.90;;;;;;6272610;22;20004;-72
2021/03/05 07:04:09;;;;;;;17.15;9.18;;;3.10;99.90;;;;;;6274123;22;19999;-72
2021/03/05 07:06:35;;;;;;;17.42;8.98;;;3.10;99.90;;;;;;6273106;22;20004;-73
2021/03/05 07:09:01;;;;;;;18.10;8.25;;;3.20;99.90;;;;;;6274294;22;20444;-74
2021/03/05 07:11:40;;;;;;;16.10;8.13;;;3.10;99.90;;;;;;6274117;22;20421;-73
2021/03/05 07:14:11;;;;;;;14.77;7.45;;;3.10;99.90;;;;;;6271828;22;20010;-73
2021/03/05 07:16:46;;;;;;;14.18;7.55;;;3.20;99.90;;;;;;6272649;22;20003;-73
2021/03/05 07:19:13;;;;;;;11.80;6.82;;;3.10;99.90;;;;;;6271505;22;20027;-72
2021/03/05 07:21:44;;;;;;;17.23;7.97;;;3.10;99.90;;;;;;6273353;22;20003;-74
2021/03/05 07:24:12;;;;;;;15.33;7.50;;;3.20;99.90;;;;;;6272371;22;20053;-74
2021/03/05 07:26:59;;;;;;;13.32;7.07;;;3.20;99.90;;;;;;6274945;22;20003;-74
2021/03/05 07:29:44;;;;;;;14.27;6.78;;;3.20;99.90;;;;;;6272550;22;20443;-74
2021/03/05 07:32:23;;;;;;;11.07;6.05;;;3.20;99.90;;;;;;6275180;22;20003;-73
2021/03/05 07:34:58;;;;;;;12.02;6.68;;;3.30;99.90;;;;;;6275958;22;20003;-74
2021/03/05 07:37:37;;;;;;;13.05;6.00;;;3.30;99.90;;;;;;6275107;22;20006;-74
2021/03/05 07:40:06;;;;;;;12.73;6.10;;;3.20;99.90;;;;;;6273525;22;20010;-74
2021/03/05 07:42:33;;;;;;;10.50;5.97;;;3.30;99.90;;;;;;6274927;22;20055;-73
2021/03/05 07:44:59;;;;;;;11.75;5.50;;;3.30;99.90;;;;;;6274950;22;20004;-73
2021/03/05 07:47:26;;;;;;;9.50;5.55;;;3.40;99.90;;;;;;6274478;22;20409;-72
2021/03/05 07:49:57;;;;;;;16.67;5.70;;;3.40;99.90;;;;;;6273595;22;20328;-74
2021/03/05 07:52:23;;;;;;;16.23;5.43;;;3.40;99.90;;;;;;6275109;22;20000;-72
2021/03/05 07:54:50;;;;;;;10.65;5.13;;;3.40;99.90;;;;;;6273216;22;20325;-71
2021/03/05 07:57:18;;;;;;;9.00;3.92;;;3.40;99.90;;;;;;6274159;22;20008;-74
2021/03/05 07:59:44;;;;;;;9.73;5.10;;;3.30;99.90;;;;;;6275033;22;20027;-74
2021/03/05 08:02:11;;;;;;;7.38;4.07;;;3.40;99.90;;;;;;6272157;22;20065;-74
2021/03/05 08:07:23;;;;;;;7.45;4.60;;;3.60;99.90;;;;;;6273474;22;20098;-72
2021/03/05 08:09:49;;;;;;;6.57;3.90;;;3.80;99.90;;;;;;6273325;22;20531;-71
2021/03/05 08:15:09;;;;;;;7.22;3.40;;;4.00;99.90;;;;;;6277103;22;20425;-71
2021/03/05 08:17:45;;;;;;;5.10;3.00;;;3.90;99.90;;;;;;6271614;22;20477;-71
2021/03/05 08:20:36;;;;;;;7.57;3.50;;;4.10;99.90;;;;;;6273034;22;20087;-71
2021/03/05 08:23:02;;;;;;;5.88;3.10;;;4.30;99.90;;;;;;6271710;22;20003;-70
2021/03/05 08:25:32;;;;;;;6.57;2.97;;;4.50;99.90;;;;;;6274098;22;20034;-70
2021/03/05 08:27:59;;;;;;;4.93;3.08;;;4.70;99.90;;;;;;6272444;22;20018;-70
2021/03/05 08:30:34;;;;;;;6.30;2.90;;;5.00;99.90;;;;;;6272487;22;19996;-70
2021/03/05 08:33:04;;;;;;;8.63;3.28;;;4.80;99.90;;;;;;6274763;22;20007;-70
2021/03/05 08:35:30;;;;;;;5.32;2.55;;;5.00;99.90;;;;;;6271934;22;20015;-70
2021/03/05 08:38:05;;;;;;;4.40;2.60;;;5.00;99.90;;;;;;6270469;22;20429;-70
2021/03/05 08:40:34;;;;;;;6.13;2.70;;;5.20;99.90;;;;;;6271252;22;20282;-71
2021/03/05 08:43:21;;;;;;;5.78;2.90;;;4.90;99.90;;;;;;6270704;22;20447;-71
2021/03/05 08:46:02;;;;;;;5.78;3.10;;;5.10;99.90;;;;;;6270465;22;19999;-70
2021/03/05 08:48:39;;;;;;;5.80;2.90;;;5.10;99.90;;;;;;6271109;22;20015;-70
2021/03/05 08:51:06;;;;;;;5.30;2.55;;;5.10;99.90;;;;;;6270684;22;19995;-71
2021/03/05 08:54:02;;;;;;;7.45;3.10;;;5.30;99.90;;;;;;6272650;22;20008;-70
2021/03/05 08:56:29;;;;;;;5.18;2.50;;;5.30;99.90;;;;;;6235794;22;20025;-71
2021/03/05 08:59:05;;;;;;;5.10;3.00;;;5.50;99.90;;;;;;6253161;22;20321;-70
2021/03/05 09:01:35;;;;;;;6.47;2.58;;;5.70;99.90;;;;;;6271431;22;20027;-70
2021/03/05 09:04:16;;;;;;;7.10;3.05;;;5.80;99.90;;;;;;6272976;22;20371;-71
2021/03/05 09:06:56;;;;;;;6.53;2.65;;;5.90;99.90;;;;;;6270776;22;20007;-70
2021/03/05 09:09:24;;;;;;;6.53;3.20;;;5.80;99.90;;;;;;6267892;22;20003;-70
2021/03/05 09:12:11;;;;;;;3.88;2.35;;;6.00;99.90;;;;;;6270104;22;20318;-70
2021/03/05 09:14:38;;;;;;;7.22;2.22;;;6.20;99.90;;;;;;6271333;22;20003;-70
2021/03/05 09:17:06;;;;;;;5.78;2.95;;;6.20;99.90;;;;;;6273837;22;20448;-71
2021/03/05 09:19:39;;;;;;;4.18;2.58;;;6.30;99.90;;;;;;6270954;22;20057;-71
2021/03/05 09:22:17;;;;;;;4.13;2.53;;;6.30;99.90;;;;;;6272834;22;20013;-71
2021/03/05 09:24:59;;;;;;;6.97;3.08;;;6.30;99.90;;;;;;6271485;22;20011;-71
2021/03/05 09:27:31;;;;;;;3.53;2.28;;;6.50;99.90;;;;;;6271594;22;20016;-71
2021/03/05 09:29:57;;;;;;;7.88;2.78;;;6.40;99.90;;;;;;6271175;22;20328;-71
2021/03/05 09:32:23;;;;;;;9.30;2.38;;;6.30;99.90;;;;;;6270958;22;20000;-70
2021/03/05 09:34:53;;;;;;;6.53;2.58;;;6.40;99.90;;;;;;6271658;22;19999;-72
2021/03/05 09:37:24;;;;;;;6.40;2.50;;;6.40;99.90;;;;;;6272414;22;20000;-72
2021/03/05 09:39:52;;;;;;;8.13;3.00;;;6.50;99.90;;;;;;6271597;22;20008;-71
2021/03/05 09:42:38;;;;;;;10.65;3.05;;;6.70;99.90;;;;;;6273001;22;20007;-72
2021/03/05 09:45:04;;;;;;;4.93;2.28;;;6.70;99.90;;;;;;6269827;22;19995;-72
2021/03/05 09:47:45;;;;;;;5.60;2.85;;;6.80;99.90;;;;;;6272157;22;20015;-71
2021/03/05 09:50:22;;;;;;;6.30;2.70;;;7.00;99.90;;;;;;6272394;22;20003;-72
2021/03/05 09:52:48;;;;;;;3.75;2.60;;;6.90;99.90;;;;;;6270840;22;20011;-72
2021/03/05 09:55:30;;;;;;;5.78;2.63;;;6.90;99.90;;;;;;6272004;22;20003;-72
2021/03/05 09:58:16;;;;;;;3.55;2.65;;;7.10;99.90;;;;;;6271056;22;20476;-71
2021/03/05 10:00:42;;;;;;;7.32;3.15;;;7.20;99.90;;;;;;6268610;22;20086;-72
2021/03/05 10:03:11;;;;;;;4.22;2.50;;;7.00;99.90;;;;;;6273500;22;20424;-72
2021/03/05 10:05:41;;;;;;;3.30;2.42;;;7.00;99.90;;;;;;6267374;22;20324;-72
2021/03/05 10:08:16;;;;;;;6.70;2.03;;;7.00;99.90;;;;;;6266777;22;20338;-72
2021/03/05 10:11:00;;;;;;;5.55;2.45;;;7.00;99.90;;;;;;6268679;22;20006;-72
2021/03/05 10:13:50;;;;;;;4.10;2.60;;;6.90;99.90;;;;;;6271347;22;20137;-72
2021/03/05 10:16:29;;;;;;;4.40;2.10;;;7.20;99.90;;;;;;6273735;22;20000;-74
2021/03/05 10:19:23;;;;;;;4.32;2.25;;;7.00;99.90;;;;;;6270694;22;20068;-72
2021/03/05 10:21:54;;;;;;;6.15;2.83;;;7.10;99.90;;;;;;6256023;22;20119;-72
2021/03/05 10:24:27;;;;;;;4.90;1.92;;;7.30;99.90;;;;;;6272738;22;20004;-72
2021/03/05 10:27:12;;;;;;;4.95;2.50;;;7.40;99.90;;;;;;6273462;22;20008;-72
2021/03/05 10:29:46;;;;;;;8.25;2.22;;;7.40;99.90;;;;;;6273219;22;20142;-72
2021/03/05 10:32:28;;;;;;;3.22;1.48;;;7.60;99.90;;;;;;6273527;22;20070;-72
2021/03/05 10:35:04;;;;;;;3.60;2.10;;;7.60;99.90;;;;;;6271369;22;20314;-72
2021/03/05 10:37:29;;;;;;;3.40;1.73;;;7.50;99.90;;;;;;6272858;22;20004;-72
2021/03/05 10:39:55;;;;;;;4.28;1.77;;;7.30;99.90;;;;;;6271007;22;20103;-72
2021/03/05 10:42:23;;;;;;;3.85;1.80;;;7.20;99.90;;;;;;6273775;22;20014;-72
2021/03/05 10:44:49;;;;;;;7.40;2.50;;;7.30;99.90;;;;;;6273225;22;20455;-72
2021/03/05 10:47:17;;;;;;;4.63;2.40;;;7.60;99.90;;;;;;6267723;22;20091;-72
2021/03/05 10:49:44;;;;;;;6.80;1.75;;;7.80;99.90;;;;;;6269430;22;20004;-72
2021/03/05 10:52:11;;;;;;;5.40;2.08;;;7.90;99.90;;;;;;6270250;22;20000;-73
2021/03/05 10:54:38;;;;;;;5.03;2.13;;;7.90;99.90;;;;;;6266897;22;20003;-73
2021/03/05 10:57:04;;;;;;;5.13;2.03;;;8.00;99.90;;;;;;6268680;22;20717;-73
2021/03/05 10:59:30;;;;;;;3.90;1.70;;;7.90;99.90;;;;;;6272027;22;20003;-73
2021/03/05 11:01:56;;;;;;;6.40;1.90;;;8.00;99.90;;;;;;6274502;22;20003;-73
2021/03/05 11:04:24;;;;;;;4.10;1.92;;;8.00;99.90;;;;;;6272183;22;19999;-73
2021/03/05 11:06:50;;;;;;;2.92;1.92;;;8.00;99.90;;;;;;6271633;22;20498;-73
2021/03/05 11:09:16;;;;;;;7.97;3.35;;;8.10;99.90;;;;;;6271586;22;20004;-72
2021/03/05 11:11:43;;;;;;;5.57;2.25;;;8.00;99.90;;;;;;6274184;22;20018;-72
2021/03/05 11:14:10;;;;;;;6.28;1.90;;;8.00;99.90;;;;;;6270947;22;20033;-72
2021/03/05 11:16:36;;;;;;;5.95;1.88;;;8.30;99.90;;;;;;6272777;22;20325;-73
2021/03/05 11:19:03;;;;;;;4.72;2.30;;;8.30;99.90;;;;;;6273827;22;20318;-73
2021/03/05 11:21:29;;;;;;;4.15;2.40;;;8.20;99.90;;;;;;6272801;22;20412;-73
2021/03/05 11:23:55;;;;;;;4.88;1.58;;;8.30;99.90;;;;;;6272224;22;20432;-73
2021/03/05 11:26:21;;;;;;;4.18;2.10;;;8.30;99.90;;;;;;6274107;22;19999;-72
2021/03/05 11:28:48;;;;;;;3.35;1.98;;;8.40;99.90;;;;;;6273411;22;20019;-73
2021/03/05 11:31:15;;;;;;;3.88;2.00;;;8.30;99.90;;;;;;6273981;22;20062;-73
2021/03/05 11:33:43;;;;;;;3.97;1.92;;;8.40;99.90;;;;;;6272767;22;20061;-73
2021/03/05 11:36:10;;;;;;;5.97;2.30;;;8.40;99.90;;;;;;6273305;22;20045;-73
2021/03/05 11:38:36;;;;;;;3.72;1.80;;;8.50;99.90;;;;;;6272434;22;20054;-72
2021/03/05 11:41:01;;;;;;;4.32;1.70;;;8.40;99.90;;;;;;6274640;22;20003;-72
2021/03/05 11:43:27;;;;;;;3.67;1.77;;;8.50;99.90;;;;;;6272542;22;20014;-73
2021/03/05 11:45:54;;;;;;;5.63;1.90;;;8.40;99.90;;;;;;6274342;22;20007;-72
2021/03/05 11:48:19;;;;;;;4.53;1.95;;;8.40;99.90;;;;;;6273804;22;20008;-73
2021/03/05 11:50:45;;;;;;;4.85;2.05;;;8.50;99.90;;;;;;6272121;22;20049;-72
2021/03/05 11:53:11;;;;;;;7.13;1.90;;;8.40;99.90;;;;;;6271178;22;20332;-72
2021/03/05 11:55:36;;;;;;;2.25;1.58;;;8.30;99.90;;;;;;6272455;22;20004;-72
2021/03/05 11:58:02;;;;;;;2.70;1.70;;;8.50;99.10;;;;;;6273192;22;20072;-73
2021/03/05 12:00:29;;;;;;;2.08;1.30;;;8.40;99.80;;;;;;6274430;22;20018;-73
2021/03/05 12:02:55;;;;;;;3.13;1.52;;;8.20;99.90;;;;;;6274236;22;19999;-73
2021/03/05 12:05:22;;;;;;;5.00;1.90;;;8.40;99.70;;;;;;6273979;22;19996;-73
2021/03/05 12:07:48;;;;;;;4.15;1.75;;;8.60;99.90;;;;;;6273853;22;20083;-73
2021/03/05 12:10:14;;;;;;;3.28;1.70;;;8.50;98.30;;;;;;6270157;22;20035;-73
2021/03/05 12:12:39;;;;;;;3.17;1.75;;;8.30;97.10;;;;;;6271573;22;20007;-73
2021/03/05 12:15:06;;;;;;;5.10;2.30;;;8.20;98.00;;;;;;6274148;22;20075;-73
2021/03/05 12:17:32;;;;;;;5.60;2.50;;;8.10;98.80;;;;;;6273236;22;20000;-73
2021/03/05 12:19:58;;;;;;;1.60;1.50;;;8.30;98.80;;;;;;6271491;22;20000;-73
2021/03/05 12:22:24;;;;;;;5.03;1.52;;;8.40;99.90;;;;;;6272932;22;20046;-73
2021/03/05 12:24:49;;;;;;;4.47;1.70;;;8.50;98.60;;;;;;6273470;22;20009;-73
2021/03/05 12:27:15;;;;;;;3.45;1.60;;;8.50;98.70;;;;;;6271211;22;20007;-72
2021/03/05 12:29:41;;;;;;;2.90;1.40;;;8.50;99.50;;;;;;6272742;22;20003;-73
2021/03/05 12:32:07;;;;;;;3.45;1.63;;;8.50;97.60;;;;;;6272605;22;20372;-73
2021/03/05 12:34:32;;;;;;;4.60;1.50;;;8.40;96.60;;;;;;6270727;22;20026;-73
2021/03/05 12:36:59;;;;;;;7.32;2.03;;;8.40;95.20;;;;;;6274412;22;20003;-72
2021/03/05 12:39:24;;;;;;;1.70;1.20;;;8.40;97.50;;;;;;6272353;22;20004;-73
2021/03/05 12:41:50;;;;;;;2.08;1.33;;;8.30;93.60;;;;;;6271025;22;20448;-73
2021/03/05 12:44:16;;;;;;;3.42;1.10;;;8.40;96.00;;;;;;6273393;22;20146;-73
2021/03/05 12:46:41;;;;;;;4.28;1.80;;;8.60;96.50;;;;;;6273727;22;20000;-73
2021/03/05 12:49:07;;;;;;;3.15;1.85;;;8.60;96.70;;;;;;6269863;22;20023;-73
2021/03/05 12:51:33;;;;;;;4.35;1.73;;;8.60;99.10;;;;;;6272728;22;20049;-73
2021/03/05 12:53:59;;;;;;;8.20;1.40;;;8.60;96.70;;;;;;6272501;22;20042;-73
2021/03/05 12:56:24;;;;;;;3.03;1.20;;;8.50;93.50;;;;;;6270891;22;20016;-73
2021/03/05 12:58:52;;;;;;;2.47;1.48;;;8.40;94.30;;;;;;6272511;22;20007;-73
2021/03/05 13:01:18;;;;;;;2.92;1.60;;;8.30;94.90;;;;;;6271516;22;20007;-72
2021/03/05 13:03:44;;;;;;;1.63;1.10;;;8.30;95.40;;;;;;6270817;22;20000;-73